ADDS TAF Board (Experimental) INFO

IDs: Format: Expanded Condensed

Updated at: 1551 UTC 30 Sep 2014

KPHX - Phoenix/Sky Harbor, AZ, US

Issued at 1510 UTC 30 Sep 2014
Time1451Z30/16Z30/17Z30/18Z30/19Z30/20Z30/21Z30/22Z30/23Z01/00Z01/01Z01/02Z01/03Z01/04Z
TypeOBSPRVLPRVLPRVLPRVLPRVLPRVLPRVLPRVLPRVLPRVLPRVLPRVLPRVL
VIS10>6>6>6>6>6>6>6>6>6>6>6>6>6
CIG----------------------------
CoverCLRSKCSKCSKCSKCSKCSKCSKCSKCSKCSKCSKCSKCSKC
FltCat--VFRVFRVFRVFRVFRVFRVFRVFRVFRVFRVFRVFRVFR
WX----------------------------
WDir110110VRBVRBVRBVRBVRB270270270270270270270
WSpd64333336666666
WGst----------------------------
R07/25
XWnd-2-1VRBVRBVRBVRBVRB-0-0-0-0-0-0-0
HWnd64VRBVRBVRBVRBVRB-6-6-6-6-6-6-6
R08/26
XWnd-2-1VRBVRBVRBVRBVRB-0-0-0-0-0-0-0
HWnd64VRBVRBVRBVRBVRB-6-6-6-6-6-6-6
Raw TAF
KPHX 301510Z 3015/0112 11004KT P6SM SKC
  FM301700 VRB03KT P6SM SKC
  FM302200 27006KT P6SM SKC
  FM010600 09004KT P6SM SKC


Raw METAR
KPHX 301451Z 11006KT 10SM CLR 22/11 A2986 RMK AO2 SLP097 T02170106 51008

TAF Board Legend

Hazard VFR MVFR IFR LIFR
Visibility (sm) >5 3≤X≤5 1≤X<3 <1
Ceiling (100 ft) >30 10≤X≤30 5≤X<10 <5
Wind Speed (kt) <10 10≤X<20 20≤X<30 ≥30
Wind Gust (kt) <15 15≤X<25 25≤X<35 ≥35
Weather No Wx Reported VCTS,-TS,-FZRA TS,FZRA +TS,+FZRA


Page loaded:  15:51 UTC  |   08:51 AM Pacific  |   09:51 AM Mountain  |   10:51 AM Central  |   11:51 AM Eastern

 

ADVISORIES

FORECASTS

FORECASTS

OBSERVATIONS

USER TOOLS

ABOUT US